createdAt,value
2023-01-19T00:04:57.448Z,2.00
2023-01-19T00:10:03.643Z,1.90
2023-01-19T00:21:53.288Z,2.00
2023-01-19T00:27:28.812Z,1.90
2023-01-19T00:32:59.154Z,2.00
2023-01-19T00:41:25.023Z,2.00
2023-01-19T00:44:17.472Z,2.00
2023-01-19T00:50:21.120Z,2.00
2023-01-19T01:02:24.323Z,1.90
2023-01-19T01:08:13.583Z,2.00
2023-01-19T01:13:23.631Z,2.00
2023-01-19T01:19:05.830Z,2.00
2023-01-19T01:24:41.703Z,2.00
2023-01-19T01:30:21.719Z,2.00
2023-01-19T02:27:18.010Z,1.50
2023-01-19T02:33:23.274Z,1.50
2023-01-19T02:44:35.748Z,1.30
2023-01-19T03:02:21.321Z,1.00
2023-01-19T03:07:32.841Z,0.90
2023-01-19T04:13:38.010Z,0.60
2023-01-19T05:04:20.580Z,0.70
2023-01-19T05:54:51.881Z,0.90
2023-01-19T06:01:25.740Z,0.90
2023-01-19T06:06:27.395Z,0.90
2023-01-19T06:18:22.373Z,1.00
2023-01-19T06:23:58.752Z,1.00
2023-01-19T06:29:00.613Z,1.10
2023-01-19T06:34:02.489Z,1.00
2023-01-19T06:39:06.085Z,1.10
2023-01-19T06:44:08.697Z,1.10
2023-01-19T06:49:10.732Z,1.10
2023-01-19T06:54:12.664Z,1.10
2023-01-19T06:59:16.825Z,1.00
2023-01-19T07:04:18.910Z,1.10
2023-01-19T07:09:21.185Z,1.10
2023-01-19T07:14:23.049Z,1.10
2023-01-19T07:19:25.171Z,1.20
2023-01-19T07:24:38.169Z,1.20
2023-01-19T07:29:40.357Z,1.20
2023-01-19T07:34:42.470Z,1.20
2023-01-19T07:39:44.357Z,1.30
2023-01-19T07:44:46.259Z,1.30
2023-01-19T07:49:48.068Z,1.30
2023-01-19T07:54:50.996Z,1.30
2023-01-19T07:59:52.949Z,1.30
2023-01-19T08:04:55.268Z,1.30
2023-01-19T08:09:57.417Z,1.30
2023-01-19T08:14:59.303Z,1.30
2023-01-19T08:20:01.473Z,1.30
2023-01-19T08:25:04.106Z,1.30
2023-01-19T08:30:06.550Z,1.30
2023-01-19T08:35:08.806Z,1.30
2023-01-19T08:40:11.328Z,1.30
2023-01-19T08:45:13.476Z,1.30
2023-01-19T08:50:15.886Z,1.20
2023-01-19T08:55:18.282Z,1.20
2023-01-19T09:00:21.599Z,1.20
2023-01-19T09:05:24.165Z,1.20
2023-01-19T09:10:26.533Z,1.20
2023-01-19T09:15:29.614Z,1.20
2023-01-19T09:20:39.568Z,1.20
2023-01-19T09:25:43.192Z,1.20
2023-01-19T09:30:45.331Z,1.20
2023-01-19T09:35:48.571Z,1.20
2023-01-19T09:40:53.754Z,1.20
2023-01-19T09:45:58.988Z,1.20
2023-01-19T09:51:03.480Z,1.30
2023-01-19T09:56:05.887Z,1.30
2023-01-19T10:01:35.223Z,1.30
2023-01-19T10:06:37.565Z,1.30
2023-01-19T10:12:11.896Z,1.40
2023-01-19T10:17:32.215Z,1.30
2023-01-19T10:22:41.262Z,1.40
2023-01-19T10:27:47.561Z,1.50
2023-01-19T10:32:50.328Z,1.50
2023-01-19T10:37:56.193Z,1.50
2023-01-19T10:42:58.227Z,1.50
2023-01-19T10:48:06.261Z,1.60
2023-01-19T10:53:21.000Z,1.60
2023-01-19T10:58:31.445Z,1.70
2023-01-19T11:03:33.339Z,1.70
2023-01-19T11:08:35.264Z,1.80
2023-01-19T11:13:38.687Z,1.80
2023-01-19T11:18:41.385Z,1.90
2023-01-19T11:23:51.128Z,1.90
2023-01-19T11:28:54.712Z,2.00
2023-01-19T11:33:59.086Z,2.00
2023-01-19T11:39:20.981Z,2.10
2023-01-19T11:44:30.176Z,2.20
2023-01-19T11:49:34.813Z,2.20
2023-01-19T11:54:59.209Z,2.30
2023-01-19T12:00:05.260Z,2.40
2023-01-19T12:05:13.594Z,2.40
2023-01-19T12:10:30.865Z,2.50
2023-01-19T12:15:39.099Z,2.60
2023-01-19T12:20:47.112Z,2.60
2023-01-19T12:26:28.003Z,2.60
2023-01-19T12:31:30.409Z,2.70
2023-01-19T12:36:38.922Z,2.80
2023-01-19T12:41:41.854Z,2.80
2023-01-19T12:46:49.318Z,2.90
2023-01-19T12:51:53.859Z,2.90
2023-01-19T12:57:00.170Z,3.00
2023-01-19T13:02:20.466Z,3.00
2023-01-19T13:07:22.445Z,3.10
2023-01-19T13:12:25.787Z,3.10
2023-01-19T13:17:52.835Z,3.20
2023-01-19T13:23:22.282Z,3.30
2023-01-19T13:28:32.108Z,3.30
2023-01-19T13:33:41.081Z,3.30
2023-01-19T13:38:43.239Z,3.30
2023-01-19T13:43:45.162Z,3.30
2023-01-19T13:49:34.021Z,3.30
2023-01-19T13:54:35.874Z,3.30
2023-01-19T13:59:37.958Z,3.30
2023-01-19T14:04:40.143Z,3.30
2023-01-19T14:09:42.128Z,3.30
2023-01-19T14:14:47.357Z,3.30
2023-01-19T14:19:50.735Z,3.30
2023-01-19T14:24:52.595Z,3.30
2023-01-19T14:29:56.794Z,3.30
2023-01-19T14:35:16.554Z,3.30
2023-01-19T14:40:20.801Z,3.30
2023-01-19T14:45:25.776Z,3.30
2023-01-19T14:50:30.634Z,3.30
2023-01-19T14:55:36.682Z,3.30
2023-01-19T15:00:39.527Z,3.30
2023-01-19T15:05:46.260Z,3.20
2023-01-19T15:10:48.141Z,3.20
2023-01-19T15:15:50.446Z,3.10
2023-01-19T15:20:56.892Z,3.10
2023-01-19T15:25:59.921Z,3.00
2023-01-19T15:31:01.831Z,2.90
2023-01-19T15:36:05.489Z,2.80
2023-01-19T15:41:28.007Z,2.70
2023-01-19T15:46:30.016Z,2.60
2023-01-19T15:51:33.351Z,2.60
2023-01-19T15:56:38.185Z,2.40
2023-01-19T16:01:42.817Z,2.30
2023-01-19T16:06:44.962Z,2.30
2023-01-19T16:11:46.955Z,2.20
2023-01-19T16:16:49.292Z,2.20
2023-01-19T16:21:51.188Z,2.10
2023-01-19T16:26:53.117Z,2.10
2023-01-19T16:31:54.974Z,2.10
2023-01-19T16:36:56.976Z,2.00
2023-01-19T16:41:58.856Z,2.00
2023-01-19T16:47:00.638Z,2.00
2023-01-19T16:52:08.537Z,1.90
2023-01-19T16:57:11.084Z,1.90
2023-01-19T17:02:13.278Z,1.80
2023-01-19T17:07:19.209Z,1.80
2023-01-19T17:12:21.674Z,1.70
2023-01-19T17:17:23.597Z,1.70
2023-01-19T17:22:25.423Z,1.60
2023-01-19T17:27:27.245Z,1.60
2023-01-19T17:32:31.014Z,1.50
2023-01-19T17:37:32.917Z,1.40
2023-01-19T17:42:39.817Z,1.40
2023-01-19T17:47:41.724Z,1.40
2023-01-19T17:52:44.133Z,1.40
2023-01-19T17:57:46.044Z,1.30
2023-01-19T18:02:51.982Z,1.40
2023-01-19T18:07:58.333Z,1.30
2023-01-19T18:13:00.246Z,1.30
2023-01-19T18:18:02.343Z,1.30
2023-01-19T18:23:04.232Z,1.30
2023-01-19T18:28:06.885Z,1.30
2023-01-19T18:33:11.243Z,1.30
2023-01-19T18:38:13.274Z,1.30
2023-01-19T18:43:15.382Z,1.30
2023-01-19T18:48:19.505Z,1.20
